createdAt,value
2022-09-22T00:01:54.085Z,1021.83
2022-09-22T00:07:01.246Z,1021.87
2022-09-22T00:12:08.408Z,1021.86
2022-09-22T00:17:15.552Z,1021.82
2022-09-22T00:22:22.748Z,1021.83
2022-09-22T00:27:30.015Z,1021.89
2022-09-22T00:32:37.172Z,1021.89
2022-09-22T00:37:44.407Z,1021.85
2022-09-22T00:42:51.605Z,1021.78
2022-09-22T00:47:58.838Z,1021.75
2022-09-22T00:53:06.090Z,1021.61
2022-09-22T00:58:13.347Z,1021.55
2022-09-22T01:03:20.529Z,1021.48
2022-09-22T01:08:27.803Z,1021.47
2022-09-22T01:13:35.039Z,1021.41
2022-09-22T01:18:42.213Z,1021.38
2022-09-22T01:23:51.123Z,1021.36
2022-09-22T01:28:58.399Z,1021.32
2022-09-22T01:34:05.524Z,1021.29
2022-09-22T01:39:12.759Z,1021.27
2022-09-22T01:44:20.003Z,1021.27
2022-09-22T01:49:27.205Z,1021.23
2022-09-22T01:54:34.389Z,1021.16
2022-09-22T01:59:41.701Z,1021.07
2022-09-22T02:04:48.899Z,1020.98
2022-09-22T02:09:56.128Z,1020.97
2022-09-22T02:15:03.410Z,1020.99
2022-09-22T02:20:10.631Z,1020.91
2022-09-22T02:25:17.805Z,1020.87
2022-09-22T02:30:25.045Z,1020.85
2022-09-22T02:35:32.239Z,1020.83
2022-09-22T02:40:39.654Z,1020.84
2022-09-22T02:45:46.879Z,1020.82
2022-09-22T02:50:54.047Z,1020.81
2022-09-22T02:56:01.250Z,1020.74
2022-09-22T03:01:08.565Z,1020.81
2022-09-22T03:06:15.662Z,1020.87
2022-09-22T03:11:22.844Z,1020.94
2022-09-22T03:16:30.037Z,1020.93
2022-09-22T03:21:37.277Z,1021.00
2022-09-22T03:26:44.516Z,1021.06
2022-09-22T03:31:51.732Z,1021.11
2022-09-22T03:36:59.007Z,1021.12
2022-09-22T03:42:06.237Z,1021.15
2022-09-22T03:47:13.473Z,1021.24
2022-09-22T03:52:20.646Z,1021.22
2022-09-22T03:57:27.852Z,1021.23
2022-09-22T04:02:35.184Z,1021.25
2022-09-22T04:07:42.327Z,1021.33
2022-09-22T04:12:49.532Z,1021.37
2022-09-22T04:17:56.808Z,1021.40
2022-09-22T04:23:03.991Z,1021.47
2022-09-22T04:28:11.152Z,1021.47
2022-09-22T04:33:18.347Z,1021.43
2022-09-22T04:38:25.477Z,1021.43
2022-09-22T04:43:32.652Z,1021.44
2022-09-22T04:48:39.899Z,1021.51
2022-09-22T04:53:47.062Z,1021.56
2022-09-22T04:58:54.225Z,1021.58
2022-09-22T05:04:01.402Z,1021.66
2022-09-22T05:09:08.569Z,1021.67
2022-09-22T05:14:15.777Z,1021.63
2022-09-22T05:19:22.990Z,1021.59
2022-09-22T05:24:30.219Z,1021.60
2022-09-22T05:29:37.480Z,1021.64
2022-09-22T05:34:44.755Z,1021.68
2022-09-22T05:39:51.942Z,1021.71
2022-09-22T05:44:59.431Z,1021.72
2022-09-22T05:50:06.707Z,1021.75
2022-09-22T05:55:13.978Z,1021.70
2022-09-22T06:00:21.276Z,1021.73
2022-09-22T06:05:28.544Z,1021.75
2022-09-22T06:10:35.706Z,1021.72
2022-09-22T06:15:42.940Z,1021.75
2022-09-22T06:20:50.211Z,1021.75
2022-09-22T06:25:57.374Z,1021.75
2022-09-22T06:31:04.610Z,1021.71
2022-09-22T06:36:11.888Z,1021.65
2022-09-22T06:41:19.135Z,1021.66
2022-09-22T06:46:26.400Z,1021.68
2022-09-22T06:51:33.624Z,1021.69
2022-09-22T06:56:40.837Z,1021.74
2022-09-22T07:01:48.225Z,1021.71
2022-09-22T07:06:55.378Z,1021.67
2022-09-22T07:12:02.621Z,1021.61
2022-09-22T07:17:09.835Z,1021.56
2022-09-22T07:22:17.045Z,1021.55
2022-09-22T07:27:24.315Z,1021.55
2022-09-22T07:32:31.502Z,1021.57
2022-09-22T07:37:38.723Z,1021.54
2022-09-22T07:42:45.939Z,1021.55
2022-09-22T07:47:53.153Z,1021.54
2022-09-22T07:53:00.375Z,1021.51
2022-09-22T07:58:07.528Z,1021.48
2022-09-22T08:03:14.744Z,1021.41
2022-09-22T08:08:22.012Z,1021.37
2022-09-22T08:13:29.222Z,1021.35
2022-09-22T08:18:36.414Z,1021.37
2022-09-22T08:23:43.573Z,1021.32
2022-09-22T08:28:50.799Z,1021.21
2022-09-22T08:33:57.990Z,1021.25
2022-09-22T08:39:05.464Z,1021.25
2022-09-22T08:44:12.389Z,1021.27
2022-09-22T08:49:19.640Z,1021.22
2022-09-22T08:54:26.857Z,1021.18
2022-09-22T08:59:34.066Z,1021.16
2022-09-22T09:04:41.224Z,1021.15
2022-09-22T09:09:48.501Z,1021.19
2022-09-22T09:14:55.761Z,1021.17
2022-09-22T09:20:02.999Z,1021.18
2022-09-22T09:25:28.015Z,1021.21
2022-09-22T09:30:17.518Z,1021.20
2022-09-22T09:35:24.598Z,1021.12
2022-09-22T09:40:31.976Z,1021.15
2022-09-22T09:45:39.108Z,1021.07
2022-09-22T09:50:46.381Z,1021.05
2022-09-22T09:55:53.590Z,1021.01
2022-09-22T10:01:00.822Z,1020.95
2022-09-22T10:06:08.069Z,1020.86
2022-09-22T10:11:15.336Z,1020.78
2022-09-22T10:16:22.684Z,1020.75
2022-09-22T10:21:29.760Z,1020.72
2022-09-22T10:26:37.062Z,1020.67
2022-09-22T10:31:44.247Z,1020.60
2022-09-22T10:36:51.469Z,1020.55
2022-09-22T10:41:58.710Z,1020.52
2022-09-22T10:47:05.854Z,1020.52
2022-09-22T10:52:12.989Z,1020.49
2022-09-22T10:57:20.190Z,1020.46
2022-09-22T11:02:27.468Z,1020.48
2022-09-22T11:07:34.641Z,1020.49
2022-09-22T11:12:41.883Z,1020.47
2022-09-22T11:17:49.100Z,1020.39
2022-09-22T11:22:56.324Z,1020.32
2022-09-22T11:28:03.554Z,1020.31
2022-09-22T11:33:10.703Z,1020.27
2022-09-22T11:38:17.928Z,1020.26
2022-09-22T11:43:25.133Z,1020.25
2022-09-22T11:48:32.367Z,1020.19
2022-09-22T11:53:39.573Z,1020.13
2022-09-22T11:58:46.814Z,1020.09
2022-09-22T12:03:54.018Z,1020.06
2022-09-22T12:09:01.296Z,1020.09
2022-09-22T12:14:08.527Z,1020.02
2022-09-22T12:19:15.697Z,1019.91
2022-09-22T12:24:22.905Z,1019.98
2022-09-22T12:29:30.188Z,1019.88
2022-09-22T12:34:37.438Z,1019.86
2022-09-22T12:39:44.688Z,1019.79
2022-09-22T12:44:51.994Z,1019.83
2022-09-22T12:49:59.189Z,1019.77
2022-09-22T12:55:06.352Z,1019.74
2022-09-22T13:00:13.574Z,1019.63
2022-09-22T13:05:20.777Z,1019.67
2022-09-22T13:10:28.125Z,1019.60
2022-09-22T13:15:35.408Z,1019.57
2022-09-22T13:20:42.584Z,1019.57
2022-09-22T13:25:49.835Z,1019.48
2022-09-22T13:30:57.189Z,1019.47
2022-09-22T13:36:04.351Z,1019.40
2022-09-22T13:41:11.589Z,1019.48
2022-09-22T13:46:18.953Z,1019.39
2022-09-22T13:51:26.126Z,1019.35
2022-09-22T13:56:33.307Z,1019.29
2022-09-22T14:01:40.583Z,1019.24
2022-09-22T14:06:47.706Z,1019.27
2022-09-22T14:11:54.933Z,1019.21
2022-09-22T14:17:02.257Z,1019.21
2022-09-22T14:22:09.437Z,1019.16
2022-09-22T14:27:16.681Z,1019.18
2022-09-22T14:32:23.934Z,1019.10
2022-09-22T14:37:31.069Z,1019.08
2022-09-22T14:42:38.278Z,1019.05
2022-09-22T14:47:45.512Z,1018.98
2022-09-22T14:52:52.680Z,1018.94
2022-09-22T14:57:59.920Z,1018.96
2022-09-22T15:03:07.097Z,1018.99
2022-09-22T15:08:14.125Z,1018.97
2022-09-22T15:13:21.289Z,1018.91
2022-09-22T15:18:30.808Z,1018.93
2022-09-22T15:23:35.836Z,1018.91
2022-09-22T15:28:43.020Z,1018.92
2022-09-22T15:33:50.298Z,1018.92
2022-09-22T15:38:57.517Z,1018.97
2022-09-22T15:44:04.877Z,1018.91
2022-09-22T15:49:12.174Z,1018.92
2022-09-22T15:54:19.358Z,1018.91
2022-09-22T15:59:26.545Z,1018.98
2022-09-22T16:04:33.823Z,1018.91
2022-09-22T16:09:40.981Z,1018.94
2022-09-22T16:14:48.239Z,1018.98
2022-09-22T16:19:55.772Z,1018.95
2022-09-22T16:25:02.873Z,1018.97
2022-09-22T16:30:10.077Z,1018.91
2022-09-22T16:35:17.304Z,1018.89
2022-09-22T16:40:24.585Z,1018.88
2022-09-22T16:45:31.692Z,1018.91
2022-09-22T16:50:38.888Z,1018.92
2022-09-22T16:55:46.799Z,1018.86
2022-09-22T17:00:53.361Z,1018.90
2022-09-22T17:06:00.576Z,1018.88
2022-09-22T17:11:07.716Z,1018.87
2022-09-22T17:16:14.948Z,1018.89
2022-09-22T17:21:22.145Z,1018.89
2022-09-22T17:26:29.588Z,1018.94
2022-09-22T17:31:36.908Z,1018.98
2022-09-22T17:36:44.042Z,1018.98
2022-09-22T17:41:51.265Z,1019.00
2022-09-22T17:46:58.592Z,1019.00
2022-09-22T17:52:05.834Z,1019.02
2022-09-22T17:57:13.019Z,1019.03
2022-09-22T18:02:20.193Z,1019.06
2022-09-22T18:07:27.395Z,1019.09
2022-09-22T18:12:34.546Z,1019.14
2022-09-22T18:17:41.789Z,1019.10
2022-09-22T18:22:49.012Z,1019.17
2022-09-22T18:27:56.170Z,1019.19
2022-09-22T18:33:03.369Z,1019.16
2022-09-22T18:38:10.638Z,1019.19
2022-09-22T18:43:17.805Z,1019.21
2022-09-22T18:48:25.111Z,1019.31
2022-09-22T18:53:32.336Z,1019.33
2022-09-22T18:58:39.558Z,1019.39
2022-09-22T19:03:46.741Z,1019.41
2022-09-22T19:08:53.999Z,1019.46
2022-09-22T19:14:01.248Z,1019.52
2022-09-22T19:19:08.443Z,1019.53
2022-09-22T19:24:15.644Z,1019.51
2022-09-22T19:29:23.157Z,1019.47
2022-09-22T19:34:30.502Z,1019.47
2022-09-22T19:39:38.064Z,1019.47
2022-09-22T19:44:45.379Z,1019.45
2022-09-22T19:49:53.800Z,1019.46
2022-09-22T19:55:00.999Z,1019.46
2022-09-22T20:00:08.234Z,1019.41
2022-09-22T20:05:15.460Z,1019.40
2022-09-22T20:10:22.714Z,1019.37
2022-09-22T20:15:29.946Z,1019.39
2022-09-22T20:20:37.107Z,1019.49
2022-09-22T20:25:44.328Z,1019.38
2022-09-22T20:30:51.699Z,1019.45
2022-09-22T20:35:58.835Z,1019.44
2022-09-22T20:41:06.213Z,1019.36
2022-09-22T20:46:13.598Z,1019.29
2022-09-22T20:51:20.597Z,1019.32
2022-09-22T20:56:27.793Z,1019.32
2022-09-22T21:01:35.055Z,1019.31
2022-09-22T21:06:42.174Z,1019.35
2022-09-22T21:11:49.425Z,1019.29
2022-09-22T21:16:56.642Z,1019.25
2022-09-22T21:22:03.861Z,1019.29
2022-09-22T21:27:11.141Z,1019.22
2022-09-22T21:32:18.362Z,1019.19
2022-09-22T21:37:25.566Z,1019.18
2022-09-22T21:42:32.757Z,1019.19
2022-09-22T21:47:39.929Z,1019.15
2022-09-22T21:52:47.138Z,1019.11
2022-09-22T21:57:54.371Z,1019.11
2022-09-22T22:03:01.550Z,1019.10
2022-09-22T22:08:08.747Z,1019.05
2022-09-22T22:13:15.979Z,1019.03
2022-09-22T22:18:23.167Z,1019.04
2022-09-22T22:23:30.386Z,1019.00
2022-09-22T22:28:37.562Z,1019.03
2022-09-22T22:33:44.744Z,1019.06
2022-09-22T22:38:51.981Z,1019.05
2022-09-22T22:43:59.174Z,1019.03
2022-09-22T22:49:06.361Z,1019.05
2022-09-22T22:54:13.591Z,1019.06
2022-09-22T22:59:20.848Z,1019.03
2022-09-22T23:04:28.003Z,1019.01
2022-09-22T23:09:35.178Z,1019.01
2022-09-22T23:14:42.441Z,1018.95
2022-09-22T23:19:49.665Z,1018.89
2022-09-22T23:24:56.928Z,1018.91
2022-09-22T23:30:04.240Z,1018.96
2022-09-22T23:35:11.328Z,1018.90
2022-09-22T23:40:18.571Z,1018.88
2022-09-22T23:45:25.813Z,1018.87
2022-09-22T23:50:33.054Z,1018.89
2022-09-22T23:55:40.260Z,1018.90
